Time;durP1;ratioP1;P1;durP2;ratioP2;P2;SDS_P1;SDS_P2;PMS_P1;PMS_P2;Temp;Humidity;BMP_temperature;BMP_pressure;BME280_temperature;BME280_humidity;BME280_pressure;Samples;Min_cycle;Max_cycle;Signal;HPM_P1;HPM_P2
2022/02/04 00:20:28;;;;;;;40.17;19.50;;;;;;;2.53;100.00;98073.78;5049536;28;20082;-78
2022/02/04 00:28:24;;;;;;;48.78;23.40;;;;;;;2.67;100.00;98058.91;5050782;28;20048;-75
2022/02/04 00:31:05;;;;;;;42.90;21.60;;;;;;;2.71;100.00;98065.47;5050534;28;20468;-76
2022/02/04 00:33:33;;;;;;;40.67;18.48;;;;;;;2.64;100.00;98062.09;5048774;28;20444;-76
2022/02/04 00:36:07;;;;;;;58.10;23.38;;;;;;;2.76;100.00;98053.97;5048375;28;20631;-76
2022/02/04 00:38:36;;;;;;;55.25;21.95;;;;;;;2.70;100.00;98039.53;5048554;28;20040;-74
2022/02/04 00:41:07;;;;;;;53.30;24.50;;;;;;;2.72;100.00;98064.44;5051192;28;20028;-74
2022/02/04 00:43:33;;;;;;;60.35;26.85;;;;;;;2.62;100.00;98051.56;5046031;28;20025;-74
2022/02/04 00:51:23;;;;;;;61.63;26.98;;;;;;;2.58;100.00;98050.41;5050162;28;20024;-76
2022/02/04 00:54:04;;;;;;;53.47;24.63;;;;;;;2.66;100.00;98047.28;5050443;28;20025;-75
2022/02/04 01:28:27;;;;;;;35.05;16.83;;;;;;;2.74;100.00;98035.28;5051424;28;20020;-76
2022/02/04 01:30:54;;;;;;;36.15;15.65;;;;;;;2.82;100.00;98031.38;5051377;28;20455;-74
2022/02/04 01:33:20;;;;;;;34.28;16.83;;;;;;;2.73;100.00;98025.53;5049926;28;20402;-76
2022/02/04 01:35:46;;;;;;;30.92;15.10;;;;;;;2.79;100.00;98026.47;5049775;28;20060;-75
2022/02/04 01:38:11;;;;;;;32.30;16.13;;;;;;;2.74;100.00;98013.69;5050473;28;20028;-76
2022/02/04 01:40:37;;;;;;;33.40;15.40;;;;;;;2.78;100.00;98012.16;5051576;28;20028;-76
2022/02/04 01:43:03;;;;;;;31.25;13.43;;;;;;;2.78;100.00;98009.44;5050652;28;20021;-77
2022/02/04 01:45:29;;;;;;;28.13;12.45;;;;;;;2.89;100.00;98013.94;5051930;28;20126;-76
2022/02/04 01:47:55;;;;;;;30.58;15.88;;;;;;;2.94;100.00;98007.81;5053047;28;20045;-76
2022/02/04 01:50:26;;;;;;;24.67;12.18;;;;;;;2.98;100.00;98008.94;5052654;28;20021;-75
2022/02/04 01:52:52;;;;;;;29.00;14.90;;;;;;;3.06;100.00;98003.16;5051779;28;20040;-76
2022/02/04 01:55:18;;;;;;;19.10;9.73;;;;;;;3.20;100.00;97985.53;5049961;28;20117;-75
2022/02/04 01:57:43;;;;;;;15.90;7.65;;;;;;;3.45;100.00;97988.59;5049508;28;20156;-81
2022/02/04 02:00:10;;;;;;;13.30;5.65;;;;;;;3.65;100.00;97982.66;5051534;28;20037;-78
2022/02/04 02:02:35;;;;;;;13.30;4.85;;;;;;;3.73;100.00;97968.69;5051634;28;20054;-75
2022/02/04 02:05:01;;;;;;;13.20;4.88;;;;;;;3.92;100.00;97977.31;5054963;28;20448;-77
2022/02/04 02:07:28;;;;;;;9.65;4.65;;;;;;;3.98;100.00;97979.81;5061011;28;20032;-78
2022/02/04 02:09:59;;;;;;;9.15;4.93;;;;;;;4.13;100.00;97985.44;5051376;28;20059;-76
2022/02/04 02:12:28;;;;;;;16.77;5.40;;;;;;;4.22;100.00;97983.09;5049909;28;20105;-77
2022/02/04 02:15:10;;;;;;;16.02;5.22;;;;;;;4.24;100.00;97981.75;5052617;28;20037;-80
2022/02/04 02:39:31;;;;;;;21.85;8.48;;;;;;;3.92;100.00;97972.72;5050685;28;20496;-76
2022/02/04 02:44:47;;;;;;;28.38;14.98;;;;;;;3.51;98.66;97970.59;5050573;28;20033;-76
2022/02/04 02:59:58;;;;;;;59.80;24.75;;;;;;;2.70;98.86;97961.22;5053180;28;20017;-75
2022/02/04 03:02:23;;;;;;;65.93;26.48;;;;;;;2.52;100.00;97966.88;5055988;28;20021;-76
2022/02/04 03:04:48;;;;;;;51.03;20.73;;;;;;;2.33;100.00;97960.03;5056242;28;20059;-75
2022/02/04 03:07:14;;;;;;;43.00;19.38;;;;;;;2.11;100.00;97965.31;5056781;28;20028;-76
2022/02/04 03:09:39;;;;;;;47.35;21.98;;;;;;;1.94;100.00;97954.47;5051734;28;20029;-75
2022/02/04 03:12:06;;;;;;;51.10;22.65;;;;;;;1.86;100.00;97962.13;5046280;28;20033;-76
2022/02/04 03:14:31;;;;;;;65.20;25.27;;;;;;;1.80;100.00;97955.81;5030319;28;20087;-76
2022/02/04 03:16:57;;;;;;;74.22;30.13;;;;;;;1.78;100.00;97952.53;5038305;28;20021;-75
2022/02/04 03:19:24;;;;;;;63.47;26.75;;;;;;;1.81;100.00;97959.34;5049977;28;20143;-76
2022/02/04 03:21:50;;;;;;;61.38;26.40;;;;;;;1.86;100.00;97952.16;5048582;28;20476;-76
2022/02/04 03:24:19;;;;;;;58.70;23.48;;;;;;;1.93;100.00;97950.16;5050080;28;20025;-75
2022/02/04 03:26:56;;;;;;;55.10;23.08;;;;;;;1.97;100.00;97953.97;5049959;28;20033;-78
2022/02/04 03:29:41;;;;;;;44.13;18.05;;;;;;;1.94;100.00;97950.97;5039695;28;20617;-75
2022/02/04 03:32:10;;;;;;;37.60;18.43;;;;;;;1.96;100.00;97959.63;5029715;28;20025;-75
2022/02/04 03:34:35;;;;;;;39.55;16.00;;;;;;;2.00;100.00;97964.31;5029724;28;20037;-75
2022/02/04 03:37:01;;;;;;;35.95;16.90;;;;;;;1.93;100.00;97958.22;5030285;28;20030;-78
2022/02/04 03:39:26;;;;;;;36.55;16.73;;;;;;;1.89;100.00;97957.06;5029947;28;20033;-77
2022/02/04 03:41:52;;;;;;;34.47;15.35;;;;;;;1.93;100.00;97947.44;5030106;28;20028;-75
2022/02/04 03:44:17;;;;;;;35.28;16.92;;;;;;;2.02;100.00;97954.09;5033537;28;20034;-77
2022/02/04 03:46:43;;;;;;;48.63;18.83;;;;;;;2.09;100.00;97935.06;5032644;28;20030;-76
2022/02/04 03:49:08;;;;;;;35.58;15.65;;;;;;;2.04;100.00;97951.97;5031691;28;20029;-75
2022/02/04 03:51:34;;;;;;;43.17;17.60;;;;;;;2.09;100.00;97952.06;5032847;28;20018;-79
2022/02/04 03:54:00;;;;;;;52.75;24.33;;;;;;;2.07;100.00;97946.09;5032969;28;20032;-78
2022/02/04 03:56:26;;;;;;;53.75;20.20;;;;;;;2.13;100.00;97947.81;5031719;28;20049;-76
2022/02/04 03:58:51;;;;;;;43.05;19.55;;;;;;;2.13;100.00;97947.81;5033040;28;20205;-76
2022/02/04 04:01:16;;;;;;;47.72;20.48;;;;;;;2.23;100.00;97946.38;5033103;28;20021;-77
2022/02/04 04:03:43;;;;;;;46.30;17.38;;;;;;;2.26;100.00;97941.31;5032715;28;20729;-76
2022/02/04 04:06:10;;;;;;;51.15;19.63;;;;;;;2.11;100.00;97941.03;5048383;28;20059;-77
2022/02/04 04:08:36;;;;;;;49.65;20.42;;;;;;;2.13;100.00;97942.41;5054177;28;20017;-77
2022/02/04 04:11:01;;;;;;;42.70;19.60;;;;;;;2.21;100.00;97948.50;5051777;28;20035;-78
2022/02/04 04:13:27;;;;;;;44.88;18.27;;;;;;;2.10;100.00;97942.09;5052729;28;20035;-76
2022/02/04 04:15:52;;;;;;;40.50;16.83;;;;;;;2.09;100.00;97945.84;5053685;28;20064;-80
2022/02/04 04:18:18;;;;;;;39.70;17.63;;;;;;;2.15;100.00;97934.09;5061331;28;20025;-77
2022/02/04 04:20:45;;;;;;;32.50;15.82;;;;;;;2.22;100.00;97940.16;5066722;28;20025;-75
2022/02/04 04:23:11;;;;;;;33.08;15.40;;;;;;;2.15;100.00;97943.03;5053299;28;20099;-78
2022/02/04 04:25:38;;;;;;;36.20;15.05;;;;;;;2.14;100.00;97940.53;5052824;28;20025;-76
2022/02/04 04:28:04;;;;;;;29.00;14.45;;;;;;;2.28;100.00;97932.97;5051164;28;20490;-74
2022/02/04 04:30:29;;;;;;;34.83;14.85;;;;;;;2.25;100.00;97936.16;5052223;28;20082;-77
2022/02/04 04:32:56;;;;;;;33.60;15.07;;;;;;;2.15;100.00;97921.44;5051409;28;20478;-77
2022/02/04 04:35:24;;;;;;;29.73;15.40;;;;;;;2.20;100.00;97933.34;5052198;28;20501;-77
2022/02/04 05:28:59;;;;;;;27.45;13.63;;;;;;;2.77;99.16;97931.38;5031252;28;20025;-76
2022/02/04 05:31:24;;;;;;;27.25;13.35;;;;;;;2.82;98.41;97929.56;5030386;28;20029;-75
2022/02/04 05:33:50;;;;;;;29.17;13.43;;;;;;;2.82;97.80;97934.16;5031697;28;20064;-74
2022/02/04 05:36:17;;;;;;;28.75;12.95;;;;;;;2.76;97.55;97949.44;5031584;28;20025;-78
2022/02/04 05:38:43;;;;;;;31.02;13.63;;;;;;;2.78;97.34;97944.63;5031910;28;20071;-76
2022/02/04 05:41:11;;;;;;;29.10;13.77;;;;;;;2.81;97.55;97954.13;5031502;28;20040;-75
2022/02/04 05:43:39;;;;;;;29.70;13.30;;;;;;;2.85;96.76;97950.66;5031427;28;20487;-75
2022/02/04 05:46:12;;;;;;;30.42;13.52;;;;;;;2.95;96.81;97950.84;5030137;28;20037;-81
2022/02/04 05:48:42;;;;;;;28.75;13.38;;;;;;;3.04;95.40;97949.34;5030527;28;20033;-78
2022/02/04 05:57:08;;;;;;;;;;;;;;;3.00;94.79;97960.91;5033981;28;20105;-78
2022/02/04 06:02:31;;;;;;;19.52;10.00;;;;;;;2.92;94.57;97962.13;5050537;28;20124;-75
2022/02/04 06:23:32;;;;;;;15.80;7.72;;;;;;;3.07;92.39;97975.88;5050646;28;20040;-76
2022/02/04 06:25:59;;;;;;;18.02;7.70;;;;;;;2.96;92.05;97955.19;5049829;28;20025;-75
2022/02/04 06:28:25;;;;;;;25.73;11.32;;;;;;;3.17;92.27;97981.44;5051903;28;20025;-75
2022/02/04 06:30:51;;;;;;;16.75;7.45;;;;;;;3.18;91.68;97979.56;5057171;28;20021;-75
2022/02/04 06:33:16;;;;;;;29.45;13.40;;;;;;;3.26;91.62;97984.53;5060452;28;20506;-76
2022/02/04 06:35:42;;;;;;;49.40;23.02;;;;;;;3.24;91.38;97982.09;5052583;28;20033;-76
2022/02/04 06:38:08;;;;;;;27.58;12.88;;;;;;;3.24;91.04;97984.78;5052370;28;20033;-77
2022/02/04 06:40:34;;;;;;;25.90;11.60;;;;;;;3.25;90.95;97982.91;5057584;28;20120;-78
2022/02/04 06:42:59;;;;;;;32.83;13.55;;;;;;;3.11;91.59;97982.44;5051346;28;20053;-78
2022/02/04 06:45:25;;;;;;;42.63;16.83;;;;;;;3.18;91.72;97983.09;5049320;28;20029;-73
2022/02/04 06:47:50;;;;;;;33.67;16.35;;;;;;;3.22;91.26;97978.00;5047454;28;20466;-72
2022/02/04 06:50:16;;;;;;;19.25;9.65;;;;;;;3.36;90.71;97986.56;5030323;28;20018;-73
2022/02/04 06:52:45;;;;;;;21.95;10.18;;;;;;;3.44;90.71;97983.47;5039211;28;20770;-75
2022/02/04 06:55:12;;;;;;;17.73;9.15;;;;;;;3.54;89.92;97986.31;5048698;28;20041;-76
2022/02/04 06:57:42;;;;;;;17.77;8.10;;;;;;;3.59;89.65;97983.66;5050368;28;20047;-76
2022/02/04 07:00:08;;;;;;;16.08;8.15;;;;;;;3.64;89.29;97975.59;5053676;28;20029;-76
2022/02/04 07:02:34;;;;;;;16.20;7.90;;;;;;;3.66;88.85;97971.59;5050540;28;20493;-75
2022/02/04 07:05:07;;;;;;;15.32;7.72;;;;;;;3.79;88.66;97989.31;5050087;28;20107;-76
2022/02/04 07:07:34;;;;;;;15.52;7.38;;;;;;;3.70;88.28;97985.41;5049372;28;20466;-75
2022/02/04 07:10:09;;;;;;;15.68;7.10;;;;;;;3.85;88.25;97982.13;5049827;28;20581;-74
2022/02/04 07:12:36;;;;;;;16.75;7.95;;;;;;;3.88;88.29;97984.31;5050193;28;20068;-77
2022/02/04 07:15:28;;;;;;;15.10;7.43;;;;;;;3.97;87.35;97978.22;5049282;28;20136;-76
2022/02/04 07:20:22;;;;;;;16.25;7.72;;;;;;;4.10;86.11;97985.91;5053954;28;20021;-76
2022/02/04 07:22:47;;;;;;;13.25;6.97;;;;;;;4.20;85.57;97975.22;5053599;28;20054;-74
2022/02/04 07:25:13;;;;;;;19.30;8.20;;;;;;;4.26;85.29;97978.81;5053972;28;20021;-74
2022/02/04 07:27:40;;;;;;;18.20;8.05;;;;;;;4.25;84.97;97996.94;5053746;28;20440;-75
2022/02/04 07:30:06;;;;;;;18.40;7.47;;;;;;;4.09;84.75;97994.31;5053645;28;20056;-75
2022/02/04 07:32:54;;;;;;;17.17;8.15;;;;;;;4.06;85.49;97990.22;5053289;28;20068;-75
2022/02/04 07:40:54;;;;;;;16.65;7.68;;;;;;;4.19;85.82;97987.13;5053645;28;20074;-75
2022/02/04 07:43:22;;;;;;;27.65;14.23;;;;;;;4.32;84.63;97988.63;5053138;28;20785;-74
2022/02/04 07:45:48;;;;;;;18.23;8.30;;;;;;;4.44;84.87;97985.75;5053116;28;20412;-74
2022/02/04 07:48:14;;;;;;;32.00;13.88;;;;;;;4.66;84.38;97984.63;5050544;28;20120;-74
2022/02/04 07:50:39;;;;;;;14.88;7.32;;;;;;;4.64;82.28;97977.81;5033470;28;20398;-74
2022/02/04 07:53:05;;;;;;;24.58;7.45;;;;;;;4.70;81.80;97990.34;5033336;28;20029;-74
2022/02/04 07:55:30;;;;;;;19.30;7.63;;;;;;;4.65;81.34;97982.19;5032144;28;20061;-74
2022/02/04 07:57:56;;;;;;;14.10;7.28;;;;;;;4.73;80.75;97981.72;5034003;28;20046;-74
2022/02/04 08:00:22;;;;;;;25.13;7.28;;;;;;;4.83;80.37;97971.78;5034763;28;20060;-75
2022/02/04 08:02:48;;;;;;;15.73;7.60;;;;;;;4.77;80.90;97972.81;5057001;28;20041;-76
2022/02/04 08:05:18;;;;;;;12.63;7.18;;;;;;;4.81;80.42;97975.81;5057985;28;20371;-75
2022/02/04 08:08:00;;;;;;;18.08;6.60;;;;;;;4.81;80.45;97973.94;5057567;28;20497;-74
2022/02/04 08:10:41;;;;;;;18.40;7.60;;;;;;;4.72;80.25;97972.78;5052974;28;20024;-74
2022/02/04 08:29:52;;;;;;;20.88;8.25;;;;;;;5.43;77.72;97978.72;5054971;28;20035;-76
2022/02/04 08:46:42;;;;;;;23.90;9.52;;;;;;;5.74;76.20;97974.28;5053547;28;20037;-76
2022/02/04 08:55:56;;;;;;;19.90;7.75;;;;;;;6.57;72.77;97977.88;5051773;28;20393;-75
2022/02/04 09:03:52;;;;;;;22.55;7.82;;;;;;;7.00;70.21;97966.50;5051603;28;20166;-75
2022/02/04 09:06:27;;;;;;;15.77;7.35;;;;;;;7.41;68.61;97973.56;5051587;28;20106;-75
2022/02/04 09:08:59;;;;;;;18.08;6.82;;;;;;;7.92;66.61;97985.16;5050791;28;20041;-76
2022/02/04 09:17:19;;;;;;;18.13;7.93;;;;;;;8.82;62.95;97990.44;5047483;28;20027;-75
2022/02/04 09:22:21;;;;;;;17.38;7.50;;;;;;;10.51;57.75;97987.41;5051019;28;20119;-74
2022/02/04 09:24:47;;;;;;;20.42;7.93;;;;;;;12.34;52.48;97993.03;5048270;28;20812;-75
2022/02/04 09:27:13;;;;;;;16.70;7.35;;;;;;;12.44;51.69;97985.72;5046847;28;20028;-75
2022/02/04 09:29:38;;;;;;;19.42;7.38;;;;;;;11.97;51.98;97997.91;5047654;28;20020;-75
2022/02/04 09:32:04;;;;;;;23.85;8.15;;;;;;;11.48;53.00;97982.06;5049342;28;20090;-75
2022/02/04 09:34:29;;;;;;;20.45;7.80;;;;;;;11.75;52.79;97999.41;5049589;28;20071;-74
2022/02/04 09:36:55;;;;;;;23.35;7.85;;;;;;;11.00;54.38;97986.94;5051294;28;20045;-82
2022/02/04 09:39:20;;;;;;;32.42;7.45;;;;;;;10.76;55.57;97989.78;5046827;28;20091;-74
2022/02/04 09:41:46;;;;;;;22.17;6.93;;;;;;;11.13;54.69;97988.94;5050909;28;20386;-74
2022/02/04 09:44:12;;;;;;;15.98;7.90;;;;;;;10.81;55.56;97989.69;5050809;28;20033;-75
2022/02/04 09:46:40;;;;;;;18.60;6.57;;;;;;;10.59;56.10;97979.34;5045956;28;20417;-75
2022/02/04 09:49:26;;;;;;;15.60;7.57;;;;;;;10.32;56.97;97983.81;5048704;28;20021;-74
2022/02/04 10:17:17;;;;;;;25.55;11.75;;;;;;;11.44;54.88;97964.59;5050607;28;20082;-78
2022/02/04 10:22:21;;;;;;;22.52;8.27;;;;;;;11.08;55.82;97954.28;5050376;28;20462;-75
2022/02/04 10:24:57;;;;;;;17.05;6.35;;;;;;;10.91;55.57;97944.94;5049332;28;20107;-75
2022/02/04 10:27:24;;;;;;;16.20;6.90;;;;;;;10.85;56.12;97949.69;5042575;28;20029;-77
2022/02/04 10:30:00;;;;;;;18.45;7.22;;;;;;;10.58;57.50;97944.09;5036756;28;20418;-76
2022/02/04 10:32:47;;;;;;;17.05;7.43;;;;;;;10.20;58.11;97940.50;5047497;28;20386;-75
2022/02/04 10:35:20;;;;;;;15.98;6.20;;;;;;;9.99;58.82;97937.16;5041514;28;20454;-78
2022/02/04 10:38:23;;;;;;;14.45;5.80;;;;;;;10.06;59.46;97934.09;5036283;28;20021;-75
2022/02/04 10:41:16;;;;;;;18.65;6.35;;;;;;;10.13;60.05;97926.34;5048771;28;20021;-76
2022/02/04 10:43:57;;;;;;;19.35;6.43;;;;;;;10.79;58.17;97922.72;5047336;28;20078;-75
2022/02/04 10:49:22;;;;;;;16.42;8.13;;;;;;;12.76;53.87;97920.53;5048430;28;20029;-76
2022/02/04 11:00:13;;;;;;;22.70;10.95;;;;;;;17.78;44.58;97915.38;5053231;28;20021;-74
2022/02/04 11:03:01;;;;;;;20.52;11.93;;;;;;;18.17;44.81;97906.41;5051602;28;20518;-77
2022/02/04 11:05:42;;;;;;;21.35;12.18;;;;;;;17.37;46.82;97907.16;5052923;28;20051;-74
2022/02/04 11:11:13;;;;;;;19.40;11.88;;;;;;;15.78;51.73;97896.22;5053024;28;20049;-75
2022/02/04 11:35:54;;;;;;;25.00;12.75;;;;;;;14.39;55.18;97851.81;5036137;28;20132;-76
2022/02/04 11:52:28;;;;;;;26.77;12.45;;;;;;;13.32;58.23;97832.06;5052843;28;20029;-75
2022/02/04 11:54:56;;;;;;;20.45;12.40;;;;;;;12.78;60.08;97816.72;5046351;28;20053;-86
2022/02/04 11:57:28;;;;;;;21.95;12.90;;;;;;;12.23;61.92;97826.28;5050602;28;20490;-86
2022/02/04 12:00:14;;;;;;;18.58;12.23;;;;;;;11.99;63.37;97820.25;5053880;28;20076;-77
2022/02/04 12:02:40;;;;;;;26.58;13.23;;;;;;;12.00;63.91;97816.38;5041730;28;20036;-76
2022/02/04 12:05:07;;;;;;;22.75;13.55;;;;;;;11.85;64.81;97809.31;5059058;28;20021;-77
2022/02/04 12:07:33;;;;;;;28.58;14.32;;;;;;;11.90;64.73;97816.63;5054415;28;20540;-74
2022/02/04 12:10:01;;;;;;;24.58;12.68;;;;;;;11.95;64.45;97806.34;5049391;28;20021;-76
2022/02/04 12:13:05;;;;;;;19.30;12.13;;;;;;;11.70;65.55;97802.22;5051601;28;20107;-76
2022/02/04 12:15:35;;;;;;;25.48;11.98;;;;;;;11.48;65.95;97788.41;5050521;28;20037;-74
2022/02/04 12:18:07;;;;;;;22.35;12.32;;;;;;;11.71;66.41;97798.38;5045521;28;20029;-75
2022/02/04 12:20:45;;;;;;;21.67;12.27;;;;;;;11.39;67.22;97795.72;5039613;28;20104;-74
2022/02/04 12:23:41;;;;;;;20.30;13.27;;;;;;;11.78;66.20;97797.94;5036973;28;20041;-73
2022/02/04 12:26:09;;;;;;;21.92;12.45;;;;;;;11.95;65.64;97795.38;5031565;28;20394;-73
2022/02/04 12:28:43;;;;;;;21.70;13.10;;;;;;;11.96;65.64;97788.78;5048564;28;20102;-76
2022/02/04 12:31:20;;;;;;;21.23;13.27;;;;;;;11.54;66.60;97776.22;5039310;28;20041;-74
2022/02/04 12:33:51;;;;;;;21.20;11.98;;;;;;;11.87;66.03;97787.09;5046418;28;20017;-75
2022/02/04 12:36:20;;;;;;;21.42;11.30;;;;;;;11.61;66.71;97775.81;5047688;28;20022;-74
2022/02/04 12:38:48;;;;;;;20.92;11.82;;;;;;;11.59;67.21;97783.56;5036647;28;20025;-75
2022/02/04 12:41:22;;;;;;;16.95;10.68;;;;;;;11.41;67.85;97779.78;5045172;28;20054;-75
2022/02/04 12:43:49;;;;;;;17.70;11.02;;;;;;;11.31;68.59;97777.25;5047927;28;20029;-75
2022/02/04 12:46:16;;;;;;;21.42;11.38;;;;;;;11.59;67.91;97776.13;5050880;28;20033;-75
2022/02/04 12:48:53;;;;;;;19.52;10.75;;;;;;;11.42;68.39;97772.38;5047420;28;20025;-74
2022/02/04 12:51:47;;;;;;;18.77;11.95;;;;;;;11.39;68.74;97768.34;5049741;28;20477;-75
2022/02/04 12:54:27;;;;;;;25.38;11.02;;;;;;;11.28;69.25;97764.16;5049177;28;20039;-74
2022/02/04 13:10:41;;;;;;;17.52;12.20;;;;;;;10.57;74.07;97757.31;5051208;28;20029;-73
2022/02/04 13:13:11;;;;;;;25.75;11.90;;;;;;;10.47;74.83;97751.19;5046568;28;20552;-74
2022/02/04 13:15:38;;;;;;;23.40;12.02;;;;;;;10.47;74.98;97752.00;5048404;28;20025;-74
2022/02/04 13:18:05;;;;;;;19.65;10.55;;;;;;;10.51;74.94;97755.75;5051352;28;20490;-75
2022/02/04 13:20:31;;;;;;;21.33;11.25;;;;;;;10.39;75.43;97749.97;5051638;28;20025;-74
2022/02/04 13:22:59;;;;;;;21.88;10.32;;;;;;;10.44;75.46;97740.84;5048180;28;20013;-75
2022/02/04 13:25:33;;;;;;;23.13;11.43;;;;;;;10.36;75.96;97750.56;5051142;28;20126;-74
2022/02/04 13:28:06;;;;;;;20.30;10.80;;;;;;;10.40;75.54;97754.28;5049050;28;20028;-74
2022/02/04 13:30:38;;;;;;;20.35;10.20;;;;;;;10.59;75.07;97749.59;5049042;28;20393;-75
2022/02/04 13:33:15;;;;;;;16.70;9.80;;;;;;;10.62;75.05;97751.72;5043505;28;20117;-75
2022/02/04 13:35:42;;;;;;;18.08;9.13;;;;;;;10.59;75.20;97752.31;5039750;28;20063;-75
2022/02/04 13:38:30;;;;;;;17.30;9.70;;;;;;;10.68;74.77;97744.25;5033868;28;20398;-74
2022/02/04 13:41:16;;;;;;;18.95;9.32;;;;;;;10.75;74.42;97750.94;5039084;28;20028;-74
2022/02/04 13:46:36;;;;;;;15.93;9.25;;;;;;;10.66;75.21;97741.00;5031206;28;20037;-75
2022/02/04 13:49:32;;;;;;;17.52;8.88;;;;;;;10.60;76.79;97748.50;5031368;28;20403;-72
2022/02/04 13:57:16;;;;;;;18.23;7.60;;;;;;;10.63;77.26;97742.41;5030901;28;20091;-74
2022/02/04 13:59:53;;;;;;;17.75;6.60;;;;;;;10.57;77.41;97740.06;5047609;28;20472;-73
2022/02/04 14:02:26;;;;;;;16.60;7.15;;;;;;;10.53;77.77;97734.38;5049871;28;20117;-74
2022/02/04 14:05:00;;;;;;;10.77;6.47;;;;;;;10.57;77.94;97746.34;5049458;28;20120;-74
2022/02/04 14:07:35;;;;;;;12.15;6.47;;;;;;;10.47;78.46;97738.31;5047351;28;21377;-74
2022/02/04 14:10:14;;;;;;;13.43;6.15;;;;;;;10.49;78.73;97738.03;5046266;28;20124;-73
2022/02/04 14:12:40;;;;;;;19.90;7.70;;;;;;;10.54;78.49;97730.56;5044124;28;20029;-78
2022/02/04 14:15:05;;;;;;;14.68;5.60;;;;;;;10.44;79.26;97736.19;5043979;28;20112;-75
2022/02/04 14:17:31;;;;;;;19.20;5.63;;;;;;;10.54;78.93;97730.56;5048910;28;20029;-74
2022/02/04 14:19:57;;;;;;;17.17;6.72;;;;;;;10.53;78.91;97728.91;5049480;28;20039;-75
2022/02/04 14:22:23;;;;;;;13.98;5.82;;;;;;;10.51;79.13;97733.88;5044047;28;20017;-75
2022/02/04 14:24:49;;;;;;;17.50;5.45;;;;;;;10.34;80.03;97730.88;5046228;28;20017;-75
2022/02/04 14:27:16;;;;;;;17.33;4.93;;;;;;;10.35;80.14;97737.16;5043038;28;20123;-74
2022/02/04 14:30:04;;;;;;;15.32;5.78;;;;;;;10.29;80.67;97730.97;5048605;28;20021;-75
2022/02/04 14:32:40;;;;;;;18.17;5.82;;;;;;;10.26;80.71;97723.38;5048839;28;20025;-74
2022/02/04 14:35:17;;;;;;;16.85;6.43;;;;;;;10.12;81.04;97727.94;5047364;28;20029;-74
2022/02/04 14:54:15;;;;;;;14.35;5.35;;;;;;;9.91;83.71;97721.19;5048895;28;20036;-74
2022/02/04 15:02:05;;;;;;;12.95;6.07;;;;;;;9.79;84.62;97718.09;5062823;28;20024;-74
2022/02/04 15:07:03;;;;;;;15.93;5.07;;;;;;;9.66;85.82;97714.19;5054661;28;20056;-74
2022/02/04 15:09:29;;;;;;;16.77;5.28;;;;;;;9.65;86.10;97713.38;5058135;28;20021;-75
2022/02/04 15:11:55;;;;;;;16.35;6.22;;;;;;;9.64;86.27;97706.31;5055950;28;20025;-75
2022/02/04 15:14:20;;;;;;;20.48;5.68;;;;;;;9.61;86.68;97720.53;5058915;28;20492;-75
2022/02/04 15:16:46;;;;;;;12.50;6.07;;;;;;;9.60;86.83;97721.63;5064742;28;20445;-75
2022/02/04 15:19:12;;;;;;;14.48;6.25;;;;;;;9.57;87.09;97713.22;5059128;28;20077;-74
2022/02/04 15:21:41;;;;;;;16.63;6.35;;;;;;;9.49;87.58;97705.69;5055765;28;20067;-74
2022/02/04 15:24:09;;;;;;;16.67;5.60;;;;;;;9.54;87.61;97716.53;5047715;28;20021;-74
2022/02/04 15:26:35;;;;;;;19.88;5.60;;;;;;;9.44;88.48;97712.03;5052520;28;20033;-74
2022/02/04 15:29:05;;;;;;;18.98;5.47;;;;;;;9.47;88.36;97713.34;5059985;28;20025;-74
2022/02/04 15:31:43;;;;;;;18.75;5.70;;;;;;;9.47;88.63;97710.63;5048768;28;20473;-74
2022/02/04 15:34:10;;;;;;;17.00;5.40;;;;;;;9.38;89.07;97718.66;5055582;28;20485;-76
2022/02/04 15:36:41;;;;;;;13.48;5.10;;;;;;;9.39;89.17;97719.47;5057654;28;20040;-74
2022/02/04 15:39:12;;;;;;;21.52;5.95;;;;;;;9.38;89.27;97717.84;5062910;28;20067;-75
2022/02/04 15:41:39;;;;;;;10.07;5.70;;;;;;;9.34;89.35;97714.88;5053595;28;20028;-76
2022/02/04 15:44:14;;;;;;;15.45;5.93;;;;;;;9.28;89.83;97717.97;5068389;28;20020;-74
2022/02/04 15:49:47;;;;;;;16.77;7.13;;;;;;;9.20;90.53;97727.63;5054710;28;20037;-76
2022/02/04 16:04:55;;;;;;;19.02;8.32;;;;;;;8.90;94.95;97714.34;5045742;28;20044;-75
2022/02/04 16:07:25;;;;;;;18.17;8.70;;;;;;;8.92;95.16;97720.34;5056423;28;20504;-75
2022/02/04 16:09:59;;;;;;;21.88;9.10;;;;;;;8.84;95.65;97712.78;5049495;28;20080;-75
2022/02/04 16:12:33;;;;;;;23.10;10.00;;;;;;;8.75;96.50;97706.34;5049124;28;20102;-75
2022/02/04 16:15:09;;;;;;;22.25;9.75;;;;;;;8.84;96.18;97715.50;5053771;28;20039;-73
2022/02/04 16:17:41;;;;;;;24.88;11.35;;;;;;;8.74;96.05;97721.88;5062483;28;20025;-75
2022/02/04 16:22:57;;;;;;;26.63;10.90;;;;;;;8.70;96.26;97709.94;5063654;28;20033;-74
2022/02/04 16:30:51;;;;;;;26.35;9.80;;;;;;;8.75;96.23;97719.97;5048209;28;20568;-80
2022/02/04 16:33:17;;;;;;;20.88;10.43;;;;;;;8.68;96.69;97716.81;5046132;28;20048;-74
2022/02/04 16:35:42;;;;;;;18.70;9.70;;;;;;;8.71;96.52;97708.03;5048353;28;20021;-75
2022/02/04 16:38:10;;;;;;;23.13;10.10;;;;;;;8.70;96.74;97714.59;5049486;28;20079;-75
2022/02/04 16:40:42;;;;;;;22.60;9.18;;;;;;;8.61;98.15;97715.19;5052237;28;20107;-75
2022/02/04 16:43:07;;;;;;;23.17;9.05;;;;;;;8.59;98.38;97717.41;5051488;28;20104;-74
2022/02/04 16:45:33;;;;;;;24.73;9.77;;;;;;;8.55;99.01;97721.81;5051557;28;20020;-74
2022/02/04 16:47:58;;;;;;;20.98;9.32;;;;;;;8.56;99.68;97719.91;5051848;28;20038;-74
2022/02/04 16:50:25;;;;;;;21.08;10.45;;;;;;;8.59;99.86;97722.88;5052811;28;20021;-74
2022/02/04 16:52:52;;;;;;;21.08;8.63;;;;;;;8.55;100.00;97721.03;5051650;28;20484;-75
2022/02/04 16:55:20;;;;;;;21.40;10.07;;;;;;;8.56;100.00;97720.72;5053812;28;20033;-75
2022/02/04 16:57:47;;;;;;;24.73;10.45;;;;;;;8.50;100.00;97715.59;5053514;28;20409;-75
2022/02/04 17:00:22;;;;;;;18.23;9.32;;;;;;;8.46;100.00;97711.81;5052921;28;20028;-74
2022/02/04 17:02:50;;;;;;;26.48;10.60;;;;;;;8.43;100.00;97724.09;5047691;28;20083;-74
2022/02/04 17:05:18;;;;;;;22.63;11.07;;;;;;;8.45;100.00;97721.94;5051212;28;20612;-74
2022/02/04 17:07:51;;;;;;;25.23;10.95;;;;;;;8.43;100.00;97718.66;5048063;28;20083;-75
2022/02/04 17:10:19;;;;;;;23.52;10.63;;;;;;;8.43;100.00;97718.66;5049939;28;20083;-74
2022/02/04 17:12:47;;;;;;;18.67;9.93;;;;;;;8.38;100.00;97715.19;5049546;28;20107;-75
2022/02/04 17:15:14;;;;;;;23.05;10.27;;;;;;;8.41;100.00;97720.88;5050646;28;20108;-74
2022/02/04 17:17:39;;;;;;;25.77;11.02;;;;;;;8.36;100.00;97729.09;5051588;28;20025;-74
2022/02/04 17:20:11;;;;;;;22.45;10.18;;;;;;;8.42;100.00;97727.97;5051406;28;20444;-75
2022/02/04 17:22:38;;;;;;;24.40;10.55;;;;;;;8.31;100.00;97725.59;5067032;28;20028;-80
2022/02/04 17:25:09;;;;;;;19.02;10.27;;;;;;;8.34;100.00;97725.00;5057779;28;20044;-76
2022/02/04 17:27:43;;;;;;;20.17;10.20;;;;;;;8.38;100.00;97721.44;5066482;28;20094;-80
2022/02/04 17:30:11;;;;;;;23.00;10.20;;;;;;;8.28;100.00;97716.06;5046259;28;20033;-75
2022/02/04 17:32:39;;;;;;;22.83;11.25;;;;;;;8.26;100.00;97718.25;5069116;28;20118;-76
2022/02/04 17:35:06;;;;;;;23.73;9.25;;;;;;;8.25;100.00;97713.91;5053420;28;20029;-75
2022/02/04 17:37:32;;;;;;;17.63;10.10;;;;;;;8.10;100.00;97703.13;5050094;28;20405;-74
2022/02/04 17:39:58;;;;;;;28.15;11.82;;;;;;;8.20;100.00;97713.13;5051534;28;20057;-74
2022/02/04 17:42:26;;;;;;;24.60;10.45;;;;;;;8.18;100.00;97726.22;5042846;28;20111;-75
2022/02/04 17:44:52;;;;;;;21.65;10.82;;;;;;;8.12;100.00;97722.72;5051100;28;20060;-75
2022/02/04 17:47:19;;;;;;;21.15;10.50;;;;;;;8.05;100.00;97719.50;5050449;28;20025;-74
2022/02/04 17:52:25;;;;;;;;;;;;;;;8.15;100.00;97722.16;5037155;28;20489;-77
2022/02/04 17:55:00;;;;;;;24.00;11.23;;;;;;;8.12;100.00;97728.16;5052820;28;19923;-76
2022/02/04 17:57:38;;;;;;;23.95;11.88;;;;;;;8.00;100.00;97720.38;5049826;28;20121;-75
2022/02/04 18:00:31;;;;;;;29.75;12.05;;;;;;;8.09;100.00;97734.19;5049725;28;20376;-74
2022/02/04 18:03:02;;;;;;;25.83;11.48;;;;;;;8.04;100.00;97720.63;5049998;28;20035;-75
2022/02/04 18:07:56;;;;;;;27.70;11.93;;;;;;;8.03;100.00;97722.53;5052568;28;20028;-75